Time;durP1;ratioP1;P1;durP2;ratioP2;P2;SDS_P1;SDS_P2;PMS_P1;PMS_P2;Temp;Humidity;BMP_temperature;BMP_pressure;BME280_temperature;BME280_humidity;BME280_pressure;Samples;Min_cycle;Max_cycle;Signal;HPM_P1;HPM_P2
2023/12/08 00:01:23;;;;;;;32.30;18.70;;;;;;;0.46;77.00;99943.48;109618;1251;68833;-57
2023/12/08 00:03:51;;;;;;;35.20;19.60;;;;;;;0.54;76.73;99943.61;109567;1250;72689;-57
2023/12/08 00:06:18;;;;;;;35.40;18.50;;;;;;;0.59;76.43;99943.45;109601;1253;60510;-58
2023/12/08 00:08:46;;;;;;;44.90;22.50;;;;;;;0.60;76.33;99947.73;109673;1251;60231;-58
2023/12/08 00:11:14;;;;;;;42.20;23.80;;;;;;;0.55;76.42;99941.81;109684;1251;74743;-58
2023/12/08 00:13:41;;;;;;;46.60;22.60;;;;;;;0.48;77.07;99944.23;109649;1251;68547;-58
2023/12/08 00:16:09;;;;;;;44.00;20.40;;;;;;;0.48;77.16;99944.13;109457;1256;71468;-58
2023/12/08 00:18:36;;;;;;;38.00;18.60;;;;;;;0.60;76.80;99947.61;109221;1254;62221;-58
2023/12/08 00:21:05;;;;;;;46.10;20.90;;;;;;;0.53;77.05;99947.01;109253;1256;58969;-58
2023/12/08 00:23:32;;;;;;;35.00;18.60;;;;;;;0.50;77.42;99950.88;109065;1254;73666;-58
2023/12/08 00:26:00;;;;;;;43.00;23.20;;;;;;;0.50;77.41;99949.80;109267;1254;67226;-58
2023/12/08 00:28:28;;;;;;;35.00;17.70;;;;;;;0.53;77.40;99945.73;109222;1256;72734;-58
2023/12/08 00:30:56;;;;;;;31.60;17.00;;;;;;;0.47;77.57;99944.08;109222;1256;61761;-58
2023/12/08 00:33:23;;;;;;;38.40;19.90;;;;;;;0.42;78.12;99942.32;109219;1254;60068;-58
2023/12/08 00:35:51;;;;;;;38.10;19.00;;;;;;;0.64;77.19;99944.67;109252;1260;74740;-58
2023/12/08 00:38:19;;;;;;;42.40;20.80;;;;;;;0.74;76.55;99943.32;109052;1254;67570;-57
2023/12/08 00:40:47;;;;;;;43.40;21.70;;;;;;;0.84;75.83;99941.95;109094;1254;71460;-57
2023/12/08 00:43:15;;;;;;;49.40;24.00;;;;;;;0.85;75.76;99942.06;109243;1254;60317;-58
2023/12/08 00:45:42;;;;;;;34.50;17.60;;;;;;;0.79;76.05;99935.26;109236;1255;59025;-57
2023/12/08 00:48:10;;;;;;;37.40;20.00;;;;;;;0.81;76.05;99937.58;109174;1257;73447;-57
2023/12/08 00:50:38;;;;;;;40.70;17.80;;;;;;;0.89;75.51;99932.20;109437;1253;68963;-57
2023/12/08 00:53:05;;;;;;;44.60;22.10;;;;;;;0.83;75.73;99929.55;109515;1253;72740;-56
2023/12/08 00:55:33;;;;;;;36.60;18.80;;;;;;;0.82;76.01;99925.56;109468;1253;62134;-57
2023/12/08 00:58:00;;;;;;;46.40;22.40;;;;;;;0.80;76.19;99922.00;109503;1252;60095;-57
2023/12/08 01:00:28;;;;;;;41.00;21.60;;;;;;;0.87;75.85;99920.37;109523;1253;73458;-57
2023/12/08 01:02:56;;;;;;;36.70;20.70;;;;;;;0.87;75.91;99918.14;109542;1253;67672;-57
2023/12/08 01:05:23;;;;;;;46.90;20.50;;;;;;;0.81;76.15;99913.42;108758;1253;1002218;-57
2023/12/08 01:07:51;;;;;;;38.30;19.70;;;;;;;0.76;76.46;99914.11;109371;1257;60464;-58
2023/12/08 01:10:18;;;;;;;42.80;22.50;;;;;;;0.79;76.49;99913.67;109281;1252;59030;-58
2023/12/08 01:12:46;;;;;;;30.20;17.10;;;;;;;0.78;76.24;99910.25;109483;1253;73405;-58
2023/12/08 01:15:14;;;;;;;34.90;18.50;;;;;;;0.80;76.31;99910.42;109552;1253;67615;-57
2023/12/08 01:17:41;;;;;;;25.40;13.90;;;;;;;0.88;75.88;99908.00;109499;1253;73167;-58
2023/12/08 01:20:09;;;;;;;39.50;21.90;;;;;;;0.85;76.08;99909.42;109563;1257;59482;-58
2023/12/08 01:22:37;;;;;;;36.70;16.50;;;;;;;0.85;76.00;99909.48;107221;1252;1002736;-57
2023/12/08 01:25:06;;;;;;;44.80;24.50;;;;;;;0.82;76.28;99910.14;109523;1253;74707;-57
2023/12/08 01:27:33;;;;;;;39.50;18.90;;;;;;;0.97;75.72;99908.92;109514;1253;67291;-58
2023/12/08 01:30:01;;;;;;;32.50;16.60;;;;;;;0.90;75.84;99907.08;109290;1253;72775;-58
2023/12/08 01:32:28;;;;;;;43.60;23.50;;;;;;;0.94;75.75;99905.59;109219;1256;59500;-58
2023/12/08 01:34:56;;;;;;;39.80;21.60;;;;;;;1.08;75.16;99908.30;109212;1256;60052;-58
2023/12/08 01:37:24;;;;;;;41.50;22.60;;;;;;;1.06;74.98;99910.44;109238;1256;74716;-57
2023/12/08 01:39:52;;;;;;;36.30;20.50;;;;;;;1.08;74.88;99909.92;109224;1256;68466;-57
2023/12/08 01:42:19;;;;;;;41.80;22.20;;;;;;;1.11;74.85;99916.59;109250;1256;72722;-57
2023/12/08 01:44:47;;;;;;;41.40;20.00;;;;;;;1.12;75.00;99914.58;109330;1258;61720;-58
2023/12/08 01:47:14;;;;;;;39.50;21.30;;;;;;;1.11;74.82;99910.94;109314;1254;59182;-59
2023/12/08 01:49:42;;;;;;;40.90;22.00;;;;;;;1.10;74.87;99907.84;109130;1254;74702;-57
2023/12/08 01:52:10;;;;;;;38.90;18.90;;;;;;;1.22;74.37;99913.85;109192;1254;68652;-58
2023/12/08 01:54:37;;;;;;;38.20;19.50;;;;;;;1.22;74.17;99908.17;109235;1254;72852;-57
2023/12/08 01:57:05;;;;;;;35.90;19.50;;;;;;;1.27;73.99;99908.43;109008;1254;61783;-57
2023/12/08 01:59:32;;;;;;;39.90;19.70;;;;;;;1.31;74.00;99911.04;109372;1254;59020;-57
2023/12/08 02:02:00;;;;;;;39.40;20.90;;;;;;;1.25;73.80;99906.41;109344;1256;73465;-57
2023/12/08 02:04:27;;;;;;;26.80;14.10;;;;;;;1.19;74.36;99904.73;109503;1251;68808;-57
2023/12/08 02:06:55;;;;;;;40.00;22.00;;;;;;;1.08;74.57;99906.84;109623;1251;72724;-57
2023/12/08 02:09:23;;;;;;;38.90;16.60;;;;;;;1.13;74.66;99908.94;109416;1251;61720;-57
2023/12/08 02:11:51;;;;;;;42.40;23.00;;;;;;;1.08;75.00;99909.00;109558;1251;58926;-57
2023/12/08 02:14:18;;;;;;;35.80;19.60;;;;;;;1.12;74.61;99908.89;109634;1251;73038;-58
2023/12/08 02:16:50;;;;;;;35.70;19.30;;;;;;;1.03;74.99;99909.05;109447;1251;68508;-57
2023/12/08 02:19:19;;;;;;;38.30;20.30;;;;;;;1.02;75.19;99910.19;109417;1252;71451;-58
2023/12/08 02:21:46;;;;;;;40.10;21.30;;;;;;;1.14;74.63;99908.80;109598;1253;60535;-58
2023/12/08 02:24:19;;;;;;;37.20;19.90;;;;;;;1.29;74.03;99906.67;109416;1251;59029;-58
2023/12/08 02:26:47;;;;;;;40.50;20.70;;;;;;;1.23;74.26;99909.84;109633;1251;74714;-57
2023/12/08 02:29:15;;;;;;;34.60;16.80;;;;;;;1.26;74.05;99911.05;109467;1251;68813;-58
2023/12/08 02:31:51;;;;;;;36.10;18.20;;;;;;;1.27;74.15;99907.60;109227;1251;72726;-58
2023/12/08 02:34:18;;;;;;;49.50;24.30;;;;;;;1.28;73.91;99910.88;109583;1257;60421;-57
2023/12/08 02:36:46;;;;;;;38.20;20.00;;;;;;;1.30;73.86;99911.11;109260;1251;60064;-57
2023/12/08 02:39:14;;;;;;;37.90;17.20;;;;;;;1.28;73.98;99910.15;109461;1250;74720;-61
2023/12/08 02:41:42;;;;;;;38.80;19.20;;;;;;;1.31;73.97;99908.73;109580;1251;68950;-57
2023/12/08 02:44:09;;;;;;;39.40;20.30;;;;;;;1.28;74.03;99909.13;109560;1253;73182;-57
2023/12/08 02:46:37;;;;;;;38.80;23.40;;;;;;;1.31;73.89;99907.33;109338;1254;60444;-57
2023/12/08 02:49:05;;;;;;;43.50;22.20;;;;;;;1.29;73.81;99903.00;109590;1251;59039;-57
2023/12/08 02:51:32;;;;;;;28.70;17.70;;;;;;;1.20;74.32;99901.91;109536;1251;73459;-57
2023/12/08 02:54:00;;;;;;;37.70;20.80;;;;;;;1.21;74.52;99905.47;109575;1254;67299;-58
2023/12/08 02:56:27;;;;;;;34.30;18.50;;;;;;;1.37;73.84;99905.05;109564;1251;72846;-58
2023/12/08 02:58:55;;;;;;;31.00;19.00;;;;;;;1.36;73.74;99905.69;109537;1254;60641;-57
2023/12/08 03:01:23;;;;;;;36.60;20.50;;;;;;;1.44;73.64;99904.48;109531;1251;59033;-57
2023/12/08 03:03:50;;;;;;;34.20;17.70;;;;;;;1.49;73.62;99900.63;109571;1251;74737;-57
2023/12/08 03:06:18;;;;;;;36.90;19.10;;;;;;;1.41;73.55;99898.41;109576;1251;68836;-57
2023/12/08 03:08:45;;;;;;;34.00;19.30;;;;;;;1.35;73.85;99894.25;109528;1251;71913;-57
2023/12/08 03:11:13;;;;;;;45.90;22.90;;;;;;;1.34;73.94;99895.98;109508;1252;59711;-57
2023/12/08 03:13:41;;;;;;;33.00;18.70;;;;;;;1.42;73.76;99897.90;109637;1251;60095;-58
2023/12/08 03:16:08;;;;;;;36.30;20.80;;;;;;;1.40;73.88;99893.40;109431;1251;72968;-57
2023/12/08 03:18:36;;;;;;;33.80;18.00;;;;;;;1.43;73.47;99892.02;109551;1251;68832;-58
2023/12/08 03:21:04;;;;;;;31.30;16.90;;;;;;;1.32;74.13;99894.98;109520;1251;72803;-57
2023/12/08 03:23:32;;;;;;;33.80;17.70;;;;;;;1.19;74.99;99896.38;109385;1253;61764;-57
2023/12/08 03:25:59;;;;;;;29.70;17.20;;;;;;;1.25;74.71;99898.55;109541;1253;60530;-57
2023/12/08 03:28:27;;;;;;;35.80;20.00;;;;;;;1.39;74.30;99900.56;109542;1251;73418;-60
2023/12/08 03:30:54;;;;;;;31.10;18.50;;;;;;;1.34;74.35;99901.02;109281;1251;68795;-57
2023/12/08 03:33:22;;;;;;;34.90;20.80;;;;;;;1.32;74.37;99901.40;109567;1251;72763;-57
2023/12/08 03:35:50;;;;;;;31.80;17.90;;;;;;;1.36;74.51;99901.95;109543;1251;61728;-56
2023/12/08 03:38:17;;;;;;;25.30;16.00;;;;;;;1.32;74.51;99895.02;109585;1252;60096;-57
2023/12/08 03:40:45;;;;;;;37.50;21.50;;;;;;;1.40;74.30;99898.94;109645;1251;74697;-58
2023/12/08 03:43:12;;;;;;;34.20;20.30;;;;;;;1.38;74.11;99892.23;109627;1253;67314;-56
2023/12/08 03:45:40;;;;;;;33.50;17.90;;;;;;;1.38;74.15;99892.93;109450;1251;72430;-57
2023/12/08 03:48:07;;;;;;;30.60;17.10;;;;;;;1.42;73.99;99890.85;109352;1251;60435;-57
2023/12/08 03:50:35;;;;;;;29.20;17.10;;;;;;;1.33;74.42;99885.23;109634;1251;58897;-58
2023/12/08 03:53:02;;;;;;;29.10;15.30;;;;;;;1.34;74.32;99885.84;109596;1251;73491;-58
2023/12/08 03:55:30;;;;;;;32.30;18.90;;;;;;;1.29;74.67;99885.17;109538;1251;67560;-59
2023/12/08 03:57:58;;;;;;;28.80;16.50;;;;;;;1.29;74.53;99883.23;109611;1251;72812;-57
2023/12/08 04:00:25;;;;;;;34.50;20.00;;;;;;;1.18;75.18;99880.67;109564;1252;61722;-58
2023/12/08 04:02:53;;;;;;;29.40;17.20;;;;;;;1.28;74.91;99879.77;108045;1251;1002882;-58
2023/12/08 04:05:21;;;;;;;36.60;18.70;;;;;;;1.25;75.00;99877.20;109619;1251;74723;-58
2023/12/08 04:07:48;;;;;;;26.60;15.40;;;;;;;1.24;75.10;99876.80;109550;1251;68648;-58
2023/12/08 04:10:16;;;;;;;29.60;17.40;;;;;;;1.14;75.55;99877.47;109565;1251;72739;-57
2023/12/08 04:12:43;;;;;;;34.00;20.20;;;;;;;1.21;75.56;99884.23;109558;1256;61753;-58
2023/12/08 04:15:11;;;;;;;32.60;18.50;;;;;;;1.22;75.35;99878.74;109575;1251;60072;-57
2023/12/08 04:17:38;;;;;;;30.30;17.20;;;;;;;1.30;75.12;99878.56;109289;1251;74713;-58
2023/12/08 04:20:06;;;;;;;38.20;19.70;;;;;;;1.37;74.78;99881.70;109527;1252;67586;-58
2023/12/08 04:22:34;;;;;;;37.10;22.00;;;;;;;1.38;74.52;99889.52;109569;1251;72784;-58
2023/12/08 04:25:02;;;;;;;28.00;17.40;;;;;;;1.31;75.17;99887.73;109498;1251;61787;-57
2023/12/08 04:27:29;;;;;;;32.50;20.00;;;;;;;1.33;75.00;99889.86;109591;1251;58905;-58
2023/12/08 04:29:57;;;;;;;42.20;21.10;;;;;;;1.33;74.82;99887.46;109591;1250;74731;-58
2023/12/08 04:32:25;;;;;;;37.40;20.80;;;;;;;1.41;74.61;99888.98;109549;1251;68524;-58
2023/12/08 04:34:56;;;;;;;43.60;23.60;;;;;;;1.51;74.29;99897.35;109585;1251;71765;-59
2023/12/08 04:37:23;;;;;;;33.80;20.40;;;;;;;1.41;74.17;99892.76;109365;1254;61749;-59
2023/12/08 04:39:51;;;;;;;35.50;20.60;;;;;;;1.20;75.83;99894.39;109549;1251;59197;-63
2023/12/08 04:42:19;;;;;;;35.10;18.90;;;;;;;1.31;75.37;99891.10;109627;1251;74736;-63
2023/12/08 04:44:46;;;;;;;41.10;21.90;;;;;;;1.29;75.32;99888.38;109429;1252;68528;-64
2023/12/08 04:47:14;;;;;;;34.80;20.10;;;;;;;1.34;75.24;99886.50;109540;1251;72720;-58
2023/12/08 04:49:41;;;;;;;34.90;20.90;;;;;;;1.36;75.12;99888.06;109562;1252;60475;-58
2023/12/08 04:52:09;;;;;;;34.40;19.00;;;;;;;1.28;75.51;99890.37;109537;1251;59053;-57
2023/12/08 04:54:37;;;;;;;43.60;25.00;;;;;;;1.22;76.01;99888.43;109609;1251;74685;-57
2023/12/08 04:57:04;;;;;;;46.40;22.40;;;;;;;1.27;75.73;99884.46;109560;1251;68521;-58
2023/12/08 04:59:34;;;;;;;38.50;21.00;;;;;;;1.22;75.91;99881.36;109552;1251;72788;-61
2023/12/08 05:02:01;;;;;;;32.00;20.50;;;;;;;1.07;76.81;99877.74;109537;1253;60518;-60
2023/12/08 05:04:29;;;;;;;36.20;20.40;;;;;;;1.18;76.43;99873.27;109361;1251;60060;-61
2023/12/08 05:06:56;;;;;;;35.80;19.20;;;;;;;1.18;76.46;99869.98;109374;1251;74047;-62
2023/12/08 05:09:24;;;;;;;26.40;17.50;;;;;;;1.03;77.36;99869.29;109608;1251;68512;-60
2023/12/08 05:11:52;;;;;;;;;;;;;;;1.02;77.57;99865.72;109549;1251;71470;-58
2023/12/08 05:14:20;;;;;;;28.10;17.00;;;;;;;1.07;77.42;99865.98;109509;1251;61726;-58
2023/12/08 05:16:48;;;;;;;33.00;20.00;;;;;;;1.18;77.09;99865.88;109625;1251;60151;-58
2023/12/08 05:19:15;;;;;;;33.60;19.20;;;;;;;1.01;77.52;99866.45;109531;1251;73816;-57
2023/12/08 05:21:43;;;;;;;30.40;17.70;;;;;;;1.03;77.83;99868.38;109612;1251;66557;-58
2023/12/08 05:24:10;;;;;;;34.10;18.80;;;;;;;1.05;77.91;99871.14;109627;1251;71058;-58
2023/12/08 05:26:38;;;;;;;40.00;25.60;;;;;;;1.15;77.51;99869.77;109346;1251;60495;-61
2023/12/08 05:29:06;;;;;;;54.70;31.20;;;;;;;1.23;77.03;99868.42;109381;1251;58967;-67
2023/12/08 05:31:33;;;;;;;39.10;24.40;;;;;;;1.22;77.15;99873.27;109499;1251;74896;-58
2023/12/08 05:34:01;;;;;;;39.50;20.80;;;;;;;1.20;77.20;99875.67;109320;1251;67628;-61
2023/12/08 05:36:28;;;;;;;37.00;21.60;;;;;;;0.20;81.73;99870.67;107840;1251;1002492;-61
2023/12/08 05:38:57;;;;;;;37.20;23.00;;;;;;;0.55;82.36;99877.52;109513;1251;60490;-57
2023/12/08 05:41:24;;;;;;;36.50;21.00;;;;;;;0.70;81.13;99878.66;109554;1251;59125;-58
2023/12/08 05:43:52;;;;;;;41.10;24.60;;;;;;;0.12;86.06;99875.58;109474;1253;149856;-64
2023/12/08 05:46:19;;;;;;;34.60;17.90;;;;;;;0.58;83.05;99875.85;109573;1251;68810;-58
2023/12/08 05:48:47;;;;;;;30.70;16.20;;;;;;;0.74;81.79;99876.08;109561;1251;72766;-62
2023/12/08 05:51:15;;;;;;;29.80;19.40;;;;;;;0.75;81.50;99878.05;109486;1251;60487;-59
2023/12/08 05:53:43;;;;;;;29.40;18.30;;;;;;;0.87;80.81;99876.59;109567;1251;60253;-57
2023/12/08 05:56:11;;;;;;;33.70;18.20;;;;;;;0.85;80.99;99876.89;109515;1251;74717;-58
2023/12/08 05:58:38;;;;;;;37.00;20.00;;;;;;;1.02;80.16;99880.69;109539;1251;68835;-57
2023/12/08 06:01:06;;;;;;;29.50;17.50;;;;;;;0.99;79.99;99879.80;109539;1251;71444;-61
2023/12/08 06:03:34;;;;;;;36.70;20.10;;;;;;;0.91;80.43;99882.46;109544;1251;61726;-57
2023/12/08 06:06:01;;;;;;;39.40;25.30;;;;;;;1.00;80.37;99879.61;109194;1251;59398;-58
2023/12/08 06:08:30;;;;;;;35.80;22.60;;;;;;;1.02;80.33;99880.31;109549;1251;72834;-58
2023/12/08 06:10:57;;;;;;;35.00;21.70;;;;;;;1.10;79.88;99880.02;109516;1253;68924;-57
2023/12/08 06:13:25;;;;;;;30.50;17.30;;;;;;;1.06;79.99;99883.87;109571;1251;70895;-57
2023/12/08 06:15:52;;;;;;;31.20;18.40;;;;;;;1.06;79.95;99885.42;109518;1252;60996;-58
2023/12/08 06:18:20;;;;;;;42.10;22.10;;;;;;;0.99;80.32;99882.73;109581;1251;58981;-59
2023/12/08 06:20:48;;;;;;;32.60;17.80;;;;;;;1.02;80.37;99881.31;109596;1251;74738;-61
2023/12/08 06:23:15;;;;;;;33.70;17.90;;;;;;;0.98;80.39;99879.66;109565;1253;68518;-60
2023/12/08 06:25:43;;;;;;;35.50;21.40;;;;;;;0.98;80.53;99880.03;109585;1251;72751;-58
2023/12/08 06:28:10;;;;;;;33.90;18.40;;;;;;;1.13;79.97;99880.39;109573;1251;60482;-60
2023/12/08 06:30:38;;;;;;;40.70;19.20;;;;;;;1.20;79.56;99879.23;109597;1251;58948;-59
2023/12/08 06:33:05;;;;;;;35.00;18.10;;;;;;;1.24;79.28;99881.82;109597;1251;73713;-60
2023/12/08 06:35:33;;;;;;;31.50;17.70;;;;;;;1.32;79.16;99882.33;109558;1252;68523;-60
2023/12/08 06:38:01;;;;;;;35.50;19.20;;;;;;;1.28;79.02;99883.98;109505;1252;71511;-59
2023/12/08 06:40:28;;;;;;;30.10;16.50;;;;;;;1.07;80.46;99882.29;109455;1252;61823;-58
2023/12/08 06:42:56;;;;;;;37.30;22.00;;;;;;;0.97;81.41;99881.23;109519;1252;58902;-58
2023/12/08 06:45:23;;;;;;;33.90;19.30;;;;;;;1.25;80.31;99883.05;109389;1254;74698;-58
2023/12/08 06:47:51;;;;;;;37.00;22.50;;;;;;;1.28;79.69;99882.28;109534;1252;68831;-59
2023/12/08 06:50:19;;;;;;;32.00;18.90;;;;;;;1.51;78.66;99880.24;109373;1252;72769;-58
2023/12/08 06:52:50;;;;;;;37.60;21.60;;;;;;;1.55;78.13;99875.17;109207;1253;60481;-59
2023/12/08 06:55:18;;;;;;;35.10;20.10;;;;;;;1.67;77.58;99877.38;109495;1252;59139;-59
2023/12/08 06:57:46;;;;;;;44.50;23.30;;;;;;;1.60;77.51;99874.57;109533;1252;74722;-58
2023/12/08 07:00:14;;;;;;;39.30;22.80;;;;;;;1.58;77.92;99867.31;109497;1252;68144;-58
2023/12/08 07:02:44;;;;;;;37.00;21.90;;;;;;;1.87;76.65;99869.64;109222;1252;71418;-58
2023/12/08 07:05:12;;;;;;;26.70;15.60;;;;;;;1.74;76.71;99865.43;109476;1252;60501;-58
2023/12/08 07:07:40;;;;;;;37.60;18.90;;;;;;;1.71;76.64;99861.91;109604;1251;60072;-58
2023/12/08 07:10:08;;;;;;;41.60;20.20;;;;;;;1.78;76.82;99859.85;109529;1252;73436;-58
2023/12/08 07:12:35;;;;;;;27.80;17.60;;;;;;;1.23;78.41;99859.36;109027;1252;68524;-58
2023/12/08 07:15:04;;;;;;;36.50;22.10;;;;;;;1.64;78.18;99856.77;109505;1252;71462;-58
2023/12/08 07:17:31;;;;;;;36.60;19.70;;;;;;;1.95;76.58;99856.95;109553;1253;60498;-58
2023/12/08 07:19:59;;;;;;;38.50;20.70;;;;;;;1.97;75.90;99857.46;109524;1252;60101;-58
2023/12/08 07:22:27;;;;;;;36.70;20.30;;;;;;;1.84;76.46;99856.73;109538;1252;74695;-58
2023/12/08 07:24:55;;;;;;;45.60;25.20;;;;;;;1.84;77.22;99856.44;109569;1252;67315;-58
2023/12/08 07:27:23;;;;;;;50.60;27.20;;;;;;;1.94;76.71;99851.65;109558;1252;72727;-58
2023/12/08 07:29:52;;;;;;;55.60;28.70;;;;;;;2.01;76.12;99849.88;109524;1252;60469;-58
2023/12/08 07:32:20;;;;;;;39.30;22.90;;;;;;;2.17;75.30;99848.43;109542;1252;58947;-57
2023/12/08 07:34:49;;;;;;;43.10;24.80;;;;;;;2.37;74.28;99845.44;109576;1252;74714;-57
2023/12/08 07:37:16;;;;;;;39.20;22.00;;;;;;;2.52;73.87;99850.03;109188;1253;68849;-58
2023/12/08 07:39:44;;;;;;;39.90;22.30;;;;;;;2.44;73.68;99846.67;109481;1252;71476;-58
2023/12/08 07:42:11;;;;;;;44.10;25.50;;;;;;;2.45;73.39;99844.73;109528;1252;60451;-58
2023/12/08 07:44:39;;;;;;;36.80;20.40;;;;;;;2.03;76.47;99847.90;109492;1252;60212;-57
2023/12/08 07:47:07;;;;;;;31.90;17.30;;;;;;;2.12;76.00;99848.87;109524;1252;73610;-57
2023/12/08 07:49:34;;;;;;;33.30;18.30;;;;;;;2.23;75.29;99845.58;109527;1252;68837;-58
2023/12/08 07:52:02;;;;;;;36.40;20.70;;;;;;;2.38;74.83;99845.86;108780;1252;1002366;-57
2023/12/08 07:54:32;;;;;;;32.00;19.70;;;;;;;2.37;75.11;99843.41;109249;1253;61746;-57
2023/12/08 07:56:59;;;;;;;25.30;15.30;;;;;;;2.52;74.24;99845.71;109209;1253;60084;-57
2023/12/08 07:59:27;;;;;;;34.80;20.10;;;;;;;2.55;73.83;99849.20;109322;1252;73501;-58
2023/12/08 08:01:55;;;;;;;34.00;19.20;;;;;;;2.73;73.00;99858.35;109557;1252;67389;-57
2023/12/08 08:04:22;;;;;;;77.00;44.40;;;;;;;2.82;72.84;99860.54;109551;1252;71435;-58
2023/12/08 08:06:50;;;;;;;34.50;21.20;;;;;;;2.79;72.86;99861.45;109506;1252;60480;-57
2023/12/08 08:09:18;;;;;;;28.30;17.60;;;;;;;2.77;72.64;99857.27;109534;1252;58979;-57
2023/12/08 08:11:45;;;;;;;32.60;18.60;;;;;;;2.96;72.42;99862.64;109545;1252;73093;-58
2023/12/08 08:14:13;;;;;;;26.50;16.30;;;;;;;2.88;72.01;99857.91;109232;1253;67826;-56
2023/12/08 08:16:41;;;;;;;36.00;23.10;;;;;;;2.89;72.46;99858.82;109528;1252;71408;-57
2023/12/08 08:19:09;;;;;;;34.30;19.20;;;;;;;3.01;71.94;99860.41;109549;1252;60476;-57
2023/12/08 08:21:36;;;;;;;32.40;18.10;;;;;;;3.17;71.03;99859.55;109552;1252;59014;-58
2023/12/08 08:24:04;;;;;;;34.70;22.20;;;;;;;3.05;70.90;99859.75;109565;1252;74680;-60
2023/12/08 08:26:32;;;;;;;30.50;18.70;;;;;;;3.13;70.98;99861.14;109188;1251;67645;-57
2023/12/08 08:28:59;;;;;;;34.30;21.20;;;;;;;3.23;70.59;99858.98;109195;1253;72737;-57
2023/12/08 08:31:27;;;;;;;28.50;18.20;;;;;;;3.47;70.41;99857.33;109573;1252;60476;-58
2023/12/08 08:33:55;;;;;;;29.20;18.40;;;;;;;3.47;69.64;99857.54;109530;1251;60078;-58
2023/12/08 08:36:25;;;;;;;36.60;25.80;;;;;;;3.42;69.54;99853.73;109564;1252;74701;-57
2023/12/08 08:38:53;;;;;;;36.20;22.40;;;;;;;3.50;69.63;99854.77;109589;1251;68571;-59
2023/12/08 08:41:21;;;;;;;29.40;19.20;;;;;;;3.66;69.44;99852.52;109520;1252;72751;-58
2023/12/08 08:43:50;;;;;;;38.10;23.70;;;;;;;3.46;69.51;99848.09;109529;1252;59641;-58
2023/12/08 08:46:17;;;;;;;;;;;;;;;3.67;68.90;99851.52;109573;1252;60292;-58
2023/12/08 08:48:45;;;;;;;38.50;18.80;;;;;;;3.65;69.49;99846.11;109409;1254;74740;-58
2023/12/08 08:51:14;;;;;;;39.70;26.00;;;;;;;3.54;69.77;99844.52;109342;1254;68677;-58
2023/12/08 08:53:42;;;;;;;33.80;22.10;;;;;;;3.64;70.10;99845.41;109297;1253;71483;-58
2023/12/08 08:56:09;;;;;;;33.20;20.30;;;;;;;3.74;70.17;99842.98;109303;1254;59449;-57
2023/12/08 08:58:37;;;;;;;33.50;19.90;;;;;;;3.94;68.69;99843.37;109315;1253;59229;-60
2023/12/08 09:01:05;;;;;;;25.40;16.20;;;;;;;3.91;67.87;99840.80;109364;1254;73496;-57
2023/12/08 09:03:32;;;;;;;33.50;20.20;;;;;;;4.03;67.78;99838.60;109305;1254;69711;-57
2023/12/08 09:06:00;;;;;;;36.20;22.60;;;;;;;4.15;67.29;99837.49;109315;1254;71047;-57
2023/12/08 09:08:28;;;;;;;33.20;22.80;;;;;;;4.25;67.39;99837.70;109079;1254;60959;-58
2023/12/08 09:10:56;;;;;;;44.00;23.60;;;;;;;4.24;66.94;99833.89;109134;1254;58984;-57
2023/12/08 09:13:25;;;;;;;31.00;19.60;;;;;;;4.19;67.13;99831.28;109092;1257;74662;-58
2023/12/08 09:15:52;;;;;;;34.20;21.10;;;;;;;4.12;67.27;99827.48;108942;1257;68869;-58
2023/12/08 09:18:20;;;;;;;34.50;20.80;;;;;;;4.13;67.21;99830.06;109013;1257;71513;-58
2023/12/08 09:20:48;;;;;;;30.80;19.30;;;;;;;4.28;67.40;99830.66;109100;1256;63440;-58
2023/12/08 09:23:16;;;;;;;41.80;22.20;;;;;;;4.40;66.67;99827.34;109048;1254;59030;-58
2023/12/08 09:25:43;;;;;;;57.80;26.50;;;;;;;4.50;66.52;99825.11;109021;1254;74910;-57
2023/12/08 09:28:11;;;;;;;54.30;28.20;;;;;;;4.44;66.64;99822.33;109196;1255;68710;-58
2023/12/08 09:30:39;;;;;;;66.00;32.80;;;;;;;4.45;67.23;99825.56;109174;1254;71803;-59
2023/12/08 09:33:09;;;;;;;56.70;28.30;;;;;;;4.29;67.16;99826.11;109174;1254;59685;-59
2023/12/08 09:35:37;;;;;;;44.60;27.90;;;;;;;4.22;67.34;99826.94;109275;1255;60077;-57
2023/12/08 09:38:05;;;;;;;59.90;36.90;;;;;;;4.22;67.83;99824.10;109323;1254;73454;-59
2023/12/08 09:40:33;;;;;;;131.40;72.30;;;;;;;4.36;67.37;99822.02;109009;1254;67601;-58
2023/12/08 09:43:06;;;;;;;81.60;43.20;;;;;;;4.49;67.35;99821.80;109305;1254;72769;-58
2023/12/08 09:45:33;;;;;;;47.50;25.90;;;;;;;4.46;66.35;99826.27;109349;1253;61420;-58
2023/12/08 09:48:01;;;;;;;65.10;34.80;;;;;;;4.37;66.87;99825.31;109577;1251;59174;-57
2023/12/08 09:50:28;;;;;;;42.40;25.10;;;;;;;4.49;67.32;99828.55;109541;1253;74746;-58
2023/12/08 09:52:56;;;;;;;30.50;19.30;;;;;;;4.62;66.97;99828.29;109489;1252;68660;-58
2023/12/08 09:55:23;;;;;;;67.90;33.70;;;;;;;4.63;66.59;99828.08;109556;1252;70688;-58
2023/12/08 09:57:52;;;;;;;42.60;24.90;;;;;;;4.42;66.48;99825.13;109514;1252;60927;-58
2023/12/08 10:00:21;;;;;;;34.40;20.20;;;;;;;4.44;67.49;99822.87;109218;1251;60187;-59
2023/12/08 10:02:49;;;;;;;38.80;22.40;;;;;;;4.55;67.44;99825.52;109372;1251;73816;-59
2023/12/08 10:05:18;;;;;;;45.40;23.80;;;;;;;4.62;67.12;99823.08;109335;1252;67367;-58
2023/12/08 10:07:46;;;;;;;30.90;19.10;;;;;;;4.70;66.90;99819.17;109565;1252;71804;-59
2023/12/08 10:10:14;;;;;;;27.90;17.00;;;;;;;4.67;67.20;99816.89;109504;1251;60985;-59
2023/12/08 10:12:41;;;;;;;24.70;17.20;;;;;;;4.68;67.40;99819.48;109549;1252;60184;-59
2023/12/08 10:15:13;;;;;;;25.80;18.50;;;;;;;4.75;67.28;99818.48;109529;1251;74799;-59
2023/12/08 10:17:50;;;;;;;26.90;16.70;;;;;;;4.75;67.17;99817.61;109517;1251;68237;-58
2023/12/08 10:20:22;;;;;;;23.00;15.10;;;;;;;4.79;66.73;99808.72;109565;1251;72741;-65
2023/12/08 10:22:51;;;;;;;23.80;16.60;;;;;;;4.75;67.06;99812.42;109407;1251;59726;-58
2023/12/08 10:25:26;;;;;;;25.70;16.90;;;;;;;4.79;66.81;99810.69;109269;1252;60091;-59
2023/12/08 10:27:55;;;;;;;24.70;17.20;;;;;;;4.74;66.61;99805.22;109559;1252;72488;-60
2023/12/08 10:30:24;;;;;;;26.10;17.50;;;;;;;4.74;66.67;99801.63;109521;1252;68502;-59
2023/12/08 10:32:52;;;;;;;38.50;20.30;;;;;;;4.80;67.05;99802.58;109520;1252;72701;-60
2023/12/08 10:35:19;;;;;;;31.10;20.20;;;;;;;4.69;67.59;99804.21;109457;1252;59704;-59
2023/12/08 10:37:47;;;;;;;29.30;17.80;;;;;;;4.42;69.40;99803.63;109528;1252;59307;-59
2023/12/08 10:40:17;;;;;;;33.40;19.60;;;;;;;4.28;71.73;99805.67;109121;1252;74744;-60
2023/12/08 10:42:48;;;;;;;29.90;18.70;;;;;;;4.65;69.56;99805.48;109343;1253;67626;-59
2023/12/08 10:45:16;;;;;;;36.60;21.50;;;;;;;4.63;70.04;99809.13;109529;1252;71468;-59
2023/12/08 10:47:45;;;;;;;27.10;17.00;;;;;;;4.40;71.04;99806.94;109591;1252;58945;-58
2023/12/08 10:50:13;;;;;;;28.40;16.90;;;;;;;4.43;69.56;99805.53;109601;1252;60233;-61
2023/12/08 10:52:41;;;;;;;23.20;16.00;;;;;;;4.56;69.31;99807.76;109327;1255;74707;-57
2023/12/08 10:55:10;;;;;;;23.20;16.60;;;;;;;4.51;69.21;99805.77;109038;1255;68591;-58
2023/12/08 10:57:38;;;;;;;35.60;20.40;;;;;;;4.52;69.38;99807.33;109158;1256;71507;-58
2023/12/08 11:00:17;;;;;;;42.90;20.30;;;;;;;4.47;69.84;99802.88;109103;1254;59688;-59
2023/12/08 11:02:49;;;;;;;24.50;16.20;;;;;;;4.43;69.98;99799.03;109287;1255;60207;-59
2023/12/08 11:05:47;;;;;;;31.80;18.70;;;;;;;4.61;70.14;99797.36;109260;1255;73455;-60
2023/12/08 11:08:16;;;;;;;31.70;17.80;;;;;;;4.63;70.33;99795.52;109278;1255;68812;-59
2023/12/08 11:10:46;;;;;;;39.30;21.50;;;;;;;4.46;70.29;99789.33;109301;1255;71482;-60
2023/12/08 11:13:23;;;;;;;28.50;17.40;;;;;;;4.52;70.17;99788.46;109167;1260;60995;-59
2023/12/08 11:16:18;;;;;;;56.50;30.50;;;;;;;4.41;70.66;99788.41;109162;1255;59039;-59
2023/12/08 11:18:46;;;;;;;54.90;29.20;;;;;;;4.45;71.20;99794.16;108974;1259;74757;-60
2023/12/08 11:21:13;;;;;;;28.80;16.00;;;;;;;4.36;71.41;99790.78;108926;1259;68528;-61